createdAt,value
2018-01-29T00:00:14.628Z,24.08
2018-01-29T00:02:41.613Z,23.42
2018-01-29T00:05:08.188Z,24.12
2018-01-29T00:07:34.692Z,23.73
2018-01-29T00:10:01.280Z,25.67
2018-01-29T00:12:28.059Z,23.70
2018-01-29T00:14:54.612Z,22.42
2018-01-29T00:17:22.239Z,23.30
2018-01-29T00:19:49.264Z,25.10
2018-01-29T00:22:15.764Z,24.17
2018-01-29T00:24:42.268Z,26.30
2018-01-29T00:27:08.588Z,27.30
2018-01-29T00:29:35.087Z,27.83
2018-01-29T00:32:01.611Z,24.45
2018-01-29T00:34:28.091Z,27.25
2018-01-29T00:36:55.008Z,26.37
2018-01-29T00:39:21.543Z,27.80
2018-01-29T00:41:48.114Z,28.45
2018-01-29T00:44:14.504Z,29.27
2018-01-29T00:46:41.080Z,28.73
2018-01-29T00:49:07.604Z,30.05
2018-01-29T00:51:34.212Z,29.52
2018-01-29T00:54:00.833Z,29.63
2018-01-29T00:56:28.441Z,30.20
2018-01-29T00:58:55.889Z,30.10
2018-01-29T01:01:22.526Z,28.27
2018-01-29T01:03:48.967Z,30.05
2018-01-29T01:06:15.556Z,28.50
2018-01-29T01:08:42.095Z,28.77
2018-01-29T01:11:08.899Z,28.90
2018-01-29T01:13:35.736Z,26.95
2018-01-29T01:16:02.320Z,26.30
2018-01-29T01:18:28.768Z,25.30
2018-01-29T01:20:55.397Z,24.42
2018-01-29T01:23:21.943Z,21.50
2018-01-29T01:25:48.493Z,22.62
2018-01-29T01:28:15.012Z,22.73
2018-01-29T01:30:41.500Z,23.50
2018-01-29T01:33:08.267Z,22.75
2018-01-29T01:35:34.593Z,22.73
2018-01-29T01:38:01.095Z,25.75
2018-01-29T01:40:27.612Z,24.48
2018-01-29T01:42:54.796Z,26.70
2018-01-29T01:45:21.608Z,24.83
2018-01-29T01:47:48.159Z,27.13
2018-01-29T01:50:14.764Z,24.45
2018-01-29T01:52:41.483Z,22.55
2018-01-29T01:55:08.123Z,24.40
2018-01-29T01:57:34.676Z,23.50
2018-01-29T02:13:19.820Z,20.70
2018-01-29T02:15:46.452Z,22.37
2018-01-29T02:18:12.907Z,21.55
2018-01-29T02:20:40.756Z,23.10
2018-01-29T02:23:07.228Z,21.98
2018-01-29T02:25:33.792Z,23.58
2018-01-29T02:28:00.267Z,23.02
2018-01-29T02:30:26.825Z,23.15
2018-01-29T02:32:53.757Z,24.70
2018-01-29T02:35:20.228Z,27.15
2018-01-29T02:37:47.468Z,25.85
2018-01-29T02:40:13.891Z,27.50
2018-01-29T02:42:40.755Z,28.02
2018-01-29T02:45:07.369Z,28.05
2018-01-29T02:47:33.889Z,27.15
2018-01-29T02:50:00.732Z,25.02
2018-01-29T02:52:27.220Z,25.85
2018-01-29T02:54:53.735Z,29.73
2018-01-29T02:57:20.276Z,27.27
2018-01-29T02:59:46.804Z,26.90
2018-01-29T03:02:13.952Z,27.75
2018-01-29T03:04:40.463Z,28.90
2018-01-29T03:07:07.055Z,27.25
2018-01-29T03:09:33.643Z,27.80
2018-01-29T03:12:00.128Z,25.83
2018-01-29T03:14:26.642Z,26.52
2018-01-29T03:16:53.427Z,28.38
2018-01-29T03:19:20.912Z,26.65
2018-01-29T03:21:47.500Z,27.67
2018-01-29T03:24:14.279Z,27.33
2018-01-29T03:26:40.883Z,26.15
2018-01-29T03:29:08.378Z,29.20
2018-01-29T03:31:35.116Z,25.95
2018-01-29T03:34:01.732Z,26.62
2018-01-29T03:36:28.494Z,25.60
2018-01-29T03:38:55.132Z,24.85
2018-01-29T03:41:21.612Z,23.02
2018-01-29T03:43:48.407Z,24.90
2018-01-29T03:46:14.976Z,23.77
2018-01-29T03:48:41.799Z,25.17
2018-01-29T03:51:08.349Z,27.75
2018-01-29T03:53:35.111Z,25.77
2018-01-29T03:56:02.615Z,27.48
2018-01-29T03:58:30.197Z,24.40
2018-01-29T04:00:57.201Z,26.08
2018-01-29T04:03:23.593Z,26.33
2018-01-29T04:05:50.051Z,27.67
2018-01-29T04:08:16.516Z,25.88
2018-01-29T04:10:44.959Z,26.70
2018-01-29T04:13:11.435Z,28.20
2018-01-29T04:15:38.316Z,25.75
2018-01-29T04:18:04.802Z,23.00
2018-01-29T04:20:31.144Z,24.37
2018-01-29T04:22:57.598Z,26.30
2018-01-29T04:25:24.108Z,28.83
2018-01-29T04:27:50.735Z,32.75
2018-01-29T04:30:17.176Z,34.30
2018-01-29T04:32:43.804Z,33.17
2018-01-29T04:35:11.233Z,41.40
2018-01-29T04:37:37.939Z,38.63
2018-01-29T04:40:04.579Z,39.28
2018-01-29T04:42:31.093Z,37.03
2018-01-29T04:44:57.715Z,36.92
2018-01-29T04:47:24.207Z,36.17
2018-01-29T04:49:50.671Z,34.72
2018-01-29T04:52:17.247Z,33.25
2018-01-29T04:54:44.374Z,31.52
2018-01-29T04:57:10.968Z,32.08
2018-01-29T04:59:38.088Z,30.17
2018-01-29T05:02:06.116Z,30.67
2018-01-29T05:04:33.704Z,29.80
2018-01-29T05:07:00.228Z,29.90
2018-01-29T05:09:26.672Z,29.77
2018-01-29T05:11:53.199Z,29.75
2018-01-29T05:14:20.035Z,30.58
2018-01-29T05:16:46.676Z,34.33
2018-01-29T05:19:13.411Z,32.30
2018-01-29T05:21:40.243Z,31.98
2018-01-29T05:24:06.880Z,33.08
2018-01-29T05:26:33.319Z,35.00
2018-01-29T05:28:59.775Z,32.95
2018-01-29T05:31:26.721Z,33.78
2018-01-29T05:33:53.268Z,32.10
2018-01-29T05:36:25.863Z,32.85
2018-01-29T05:38:53.420Z,32.17
2018-01-29T05:41:20.004Z,34.15
2018-01-29T05:43:46.840Z,32.70
2018-01-29T05:46:13.408Z,32.85
2018-01-29T05:48:39.856Z,31.62
2018-01-29T05:51:07.237Z,33.05
2018-01-29T05:53:33.932Z,33.30
2018-01-29T05:56:00.342Z,30.48
2018-01-29T05:58:27.333Z,30.12
2018-01-29T06:00:53.830Z,28.02
2018-01-29T06:03:20.264Z,30.27
2018-01-29T06:05:46.636Z,29.83
2018-01-29T06:08:13.091Z,32.65
2018-01-29T06:10:39.866Z,30.25
2018-01-29T06:13:06.392Z,28.95
2018-01-29T06:15:33.425Z,28.70
2018-01-29T06:18:00.130Z,30.05
2018-01-29T06:20:27.663Z,27.45
2018-01-29T06:22:54.164Z,22.98
2018-01-29T06:25:20.622Z,22.87
2018-01-29T06:27:47.602Z,24.00
2018-01-29T06:30:14.125Z,24.73
2018-01-29T06:32:40.519Z,25.20
2018-01-29T06:35:07.435Z,26.25
2018-01-29T06:37:33.915Z,27.65
2018-01-29T06:40:00.440Z,29.63
2018-01-29T06:42:27.037Z,30.70
2018-01-29T06:44:53.572Z,29.73
2018-01-29T06:47:20.140Z,32.72
2018-01-29T06:49:46.593Z,32.75
2018-01-29T06:52:13.443Z,35.42
2018-01-29T06:54:39.964Z,36.08
2018-01-29T06:57:06.484Z,34.38
2018-01-29T06:59:33.127Z,36.92
2018-01-29T07:02:01.604Z,37.58
2018-01-29T07:04:28.548Z,35.90
2018-01-29T07:06:55.419Z,40.58
2018-01-29T07:09:22.872Z,39.85
2018-01-29T07:11:49.435Z,43.35
2018-01-29T07:14:15.833Z,42.40
2018-01-29T07:16:43.425Z,45.30
2018-01-29T07:19:09.968Z,45.38
2018-01-29T07:21:36.767Z,49.45
2018-01-29T07:24:04.032Z,56.95
2018-01-29T07:26:30.927Z,54.03
2018-01-29T07:28:57.595Z,59.20
2018-01-29T07:31:24.454Z,59.67
2018-01-29T07:33:51.032Z,55.45
2018-01-29T07:36:17.565Z,54.60
2018-01-29T07:38:44.073Z,55.70
2018-01-29T07:41:10.584Z,47.00
2018-01-29T07:43:37.129Z,44.33
2018-01-29T07:46:03.673Z,42.20
2018-01-29T07:48:30.072Z,42.10
2018-01-29T07:50:57.044Z,44.13
2018-01-29T07:53:23.559Z,43.50
2018-01-29T07:55:50.447Z,44.40
2018-01-29T07:58:17.114Z,43.77
2018-01-29T08:00:43.525Z,45.47
2018-01-29T08:03:10.020Z,43.27
2018-01-29T08:05:36.844Z,42.57
2018-01-29T08:08:03.396Z,39.80
2018-01-29T08:10:30.015Z,41.00
2018-01-29T08:12:56.506Z,42.27
2018-01-29T08:15:23.081Z,39.87
2018-01-29T08:17:49.795Z,44.03
2018-01-29T08:20:16.385Z,44.67
2018-01-29T08:22:42.728Z,42.97
2018-01-29T08:25:09.824Z,42.90
2018-01-29T08:27:36.411Z,43.73
2018-01-29T08:30:02.860Z,42.00
2018-01-29T08:32:29.737Z,42.63
2018-01-29T08:34:56.200Z,41.50
2018-01-29T08:37:23.160Z,40.80
2018-01-29T08:39:49.512Z,38.90
2018-01-29T08:42:16.102Z,39.07
2018-01-29T08:44:42.692Z,37.27
2018-01-29T08:47:09.277Z,37.53
2018-01-29T08:49:35.829Z,36.20
2018-01-29T09:05:21.352Z,39.33
2018-01-29T09:07:47.922Z,41.03
2018-01-29T09:10:14.337Z,41.77
2018-01-29T09:12:41.197Z,42.40
2018-01-29T09:15:07.720Z,43.23
2018-01-29T09:17:34.369Z,40.83
2018-01-29T09:20:00.858Z,37.83
2018-01-29T09:22:27.708Z,38.07
2018-01-29T09:24:54.237Z,37.57
2018-01-29T09:27:21.081Z,37.50
2018-01-29T09:29:47.614Z,35.70
2018-01-29T09:32:14.021Z,27.43
2018-01-29T09:34:40.714Z,27.50
2018-01-29T09:37:07.523Z,26.17
2018-01-29T09:39:34.413Z,27.77
2018-01-29T09:42:00.857Z,29.23
2018-01-29T09:44:27.745Z,27.50
2018-01-29T09:46:54.534Z,30.47
2018-01-29T09:49:21.396Z,28.80
2018-01-29T09:51:47.923Z,29.03
2018-01-29T09:54:14.818Z,25.13
2018-01-29T09:56:41.352Z,23.47
2018-01-29T09:59:08.157Z,25.17
2018-01-29T10:01:34.658Z,24.40
2018-01-29T10:04:01.593Z,20.37
2018-01-29T10:06:28.033Z,19.93
2018-01-29T10:08:54.915Z,13.53
2018-01-29T10:11:21.708Z,11.30
2018-01-29T10:13:48.323Z,11.73
2018-01-29T10:16:14.800Z,13.00
2018-01-29T10:18:41.344Z,10.23
2018-01-29T10:21:07.976Z,10.97
2018-01-29T10:23:34.696Z,9.63
2018-01-29T10:26:01.235Z,10.53
2018-01-29T10:28:27.799Z,10.37
2018-01-29T10:30:54.292Z,12.40
2018-01-29T10:33:20.897Z,11.30
2018-01-29T10:35:47.380Z,12.17
2018-01-29T10:38:13.993Z,11.20
2018-01-29T10:40:40.744Z,11.63
2018-01-29T10:43:07.560Z,10.90
2018-01-29T10:45:34.178Z,13.00
2018-01-29T10:48:00.667Z,12.97
2018-01-29T10:50:28.384Z,12.13
2018-01-29T10:52:55.044Z,15.43
2018-01-29T10:55:21.508Z,13.50
2018-01-29T10:57:47.879Z,14.80
2018-01-29T11:00:15.187Z,13.90
2018-01-29T11:02:41.726Z,13.37
2018-01-29T11:05:08.351Z,15.60
2018-01-29T11:07:34.787Z,15.00
2018-01-29T11:10:01.380Z,12.80
2018-01-29T11:12:28.816Z,13.03
2018-01-29T11:14:55.159Z,13.67
2018-01-29T11:17:21.608Z,12.17
2018-01-29T11:19:48.152Z,14.20
2018-01-29T11:22:14.725Z,12.83
2018-01-29T11:24:41.512Z,12.80
2018-01-29T11:27:08.388Z,12.30
2018-01-29T11:29:34.906Z,12.37
2018-01-29T11:32:01.618Z,12.80
2018-01-29T11:34:29.102Z,13.40
2018-01-29T11:36:55.968Z,14.87
2018-01-29T11:39:22.492Z,15.20
2018-01-29T11:41:49.052Z,14.57
2018-01-29T11:44:15.635Z,14.40
2018-01-29T11:46:42.147Z,13.17
2018-01-29T11:49:08.669Z,13.00
2018-01-29T11:51:35.172Z,14.35
2018-01-29T11:54:01.744Z,13.73
2018-01-29T11:56:28.247Z,16.70
2018-01-29T11:58:54.895Z,14.43
2018-01-29T12:01:21.352Z,13.75
2018-01-29T12:03:47.917Z,13.93
2018-01-29T12:06:14.346Z,11.80
2018-01-29T12:08:41.235Z,11.73
2018-01-29T12:11:07.869Z,11.90
2018-01-29T12:13:34.676Z,12.20
2018-01-29T12:16:01.147Z,12.63
2018-01-29T12:18:28.081Z,24.40
2018-01-29T12:20:54.607Z,14.63
2018-01-29T12:23:21.024Z,13.52
2018-01-29T12:25:47.912Z,11.35
2018-01-29T12:28:14.739Z,12.50
2018-01-29T12:30:41.294Z,12.98
2018-01-29T12:33:07.883Z,12.60
2018-01-29T12:35:34.415Z,13.07
2018-01-29T12:38:00.901Z,11.93
2018-01-29T12:40:27.452Z,11.35
2018-01-29T12:42:53.971Z,15.00
2018-01-29T12:45:20.523Z,10.45
2018-01-29T12:47:47.132Z,11.40
2018-01-29T12:50:13.548Z,10.43
2018-01-29T12:52:40.095Z,10.75
2018-01-29T12:55:06.680Z,10.35
2018-01-29T12:57:33.159Z,10.00
2018-01-29T12:59:59.833Z,9.50
2018-01-29T13:02:26.301Z,10.75
2018-01-29T13:04:52.688Z,10.57
2018-01-29T13:07:19.696Z,8.60
2018-01-29T13:09:46.148Z,8.50
2018-01-29T13:12:12.792Z,9.50
2018-01-29T13:14:39.296Z,10.82
2018-01-29T13:17:05.776Z,9.93
2018-01-29T13:19:32.359Z,10.40
2018-01-29T13:21:58.897Z,10.45
2018-01-29T13:24:25.427Z,9.40
2018-01-29T13:26:51.897Z,10.07
2018-01-29T13:29:18.518Z,11.50
2018-01-29T13:31:44.963Z,9.35
2018-01-29T13:34:11.572Z,8.32
2018-01-29T13:36:38.185Z,9.77
2018-01-29T13:39:04.611Z,10.50
2018-01-29T13:41:31.048Z,9.63
2018-01-29T13:43:57.692Z,9.93
2018-01-29T13:46:24.231Z,8.70
2018-01-29T13:48:51.145Z,9.82
2018-01-29T13:51:18.475Z,10.63
2018-01-29T13:53:45.040Z,10.20
2018-01-29T13:56:11.840Z,11.93
2018-01-29T13:58:38.398Z,13.20
2018-01-29T14:01:04.994Z,9.70
2018-01-29T14:03:32.381Z,11.65
2018-01-29T14:05:58.974Z,12.60
2018-01-29T14:08:25.472Z,11.95
2018-01-29T14:10:52.020Z,12.40
2018-01-29T14:13:18.626Z,10.90
2018-01-29T14:15:45.072Z,9.43
2018-01-29T14:18:11.901Z,10.30
2018-01-29T14:20:38.807Z,9.90
2018-01-29T14:23:06.268Z,9.50
2018-01-29T14:25:32.802Z,11.63
2018-01-29T14:27:59.327Z,11.25
2018-01-29T14:30:25.860Z,11.88
2018-01-29T14:32:52.357Z,11.32
2018-01-29T14:35:19.180Z,10.88
2018-01-29T14:37:45.821Z,12.95
2018-01-29T14:40:12.250Z,13.45
2018-01-29T14:42:39.596Z,13.30
2018-01-29T14:45:06.264Z,13.13
2018-01-29T14:47:32.799Z,17.20
2018-01-29T14:49:59.392Z,14.13
2018-01-29T14:52:25.867Z,13.25
2018-01-29T14:54:52.501Z,13.10
2018-01-29T14:57:18.919Z,13.60
2018-01-29T14:59:45.477Z,15.13
2018-01-29T15:02:12.356Z,13.02
2018-01-29T15:04:39.758Z,14.75
2018-01-29T15:07:06.348Z,14.63
2018-01-29T15:09:33.127Z,14.60
2018-01-29T15:11:59.964Z,14.23
2018-01-29T15:14:26.552Z,12.70
2018-01-29T15:16:53.370Z,14.13
2018-01-29T15:19:19.900Z,13.05
2018-01-29T15:21:46.747Z,15.40
2018-01-29T15:24:13.272Z,13.93
2018-01-29T15:26:39.847Z,14.95
2018-01-29T15:29:06.633Z,16.30
2018-01-29T15:31:34.203Z,14.95
2018-01-29T15:34:00.708Z,17.55
2018-01-29T15:36:27.236Z,19.15
2018-01-29T15:38:53.776Z,22.75
2018-01-29T15:41:20.548Z,21.30
2018-01-29T15:43:47.088Z,21.83
2018-01-29T15:46:13.630Z,19.65
2018-01-29T15:48:40.192Z,19.27
2018-01-29T15:51:06.743Z,19.62
2018-01-29T15:53:33.284Z,15.73
2018-01-29T15:55:59.747Z,14.40
2018-01-29T15:58:26.303Z,14.18
2018-01-29T16:00:53.200Z,13.95
2018-01-29T16:03:19.724Z,14.48
2018-01-29T16:05:46.215Z,14.25
2018-01-29T16:08:12.743Z,14.80
2018-01-29T16:10:40.215Z,14.52
2018-01-29T16:13:07.292Z,12.70
2018-01-29T16:15:33.981Z,14.20
2018-01-29T16:18:00.403Z,14.60
2018-01-29T16:20:29.713Z,14.30
2018-01-29T16:22:56.252Z,15.48
2018-01-29T16:25:22.779Z,15.80
2018-01-29T16:27:49.639Z,16.02
2018-01-29T16:30:16.347Z,16.65
2018-01-29T16:32:43.072Z,16.52
2018-01-29T16:35:09.948Z,16.02
2018-01-29T16:37:36.385Z,17.20
2018-01-29T16:40:03.040Z,15.10
2018-01-29T16:42:29.471Z,18.35
2018-01-29T16:44:55.932Z,17.95
2018-01-29T16:47:22.851Z,17.52
2018-01-29T16:49:49.972Z,18.37
2018-01-29T16:52:16.631Z,18.52
2018-01-29T16:54:43.056Z,17.85
2018-01-29T16:57:09.944Z,16.80
2018-01-29T16:59:36.499Z,17.90
2018-01-29T17:02:03.264Z,18.48
2018-01-29T17:04:29.587Z,18.90
2018-01-29T17:06:56.063Z,17.25
2018-01-29T17:09:22.559Z,17.50
2018-01-29T17:11:49.214Z,17.23
2018-01-29T17:14:15.672Z,17.12
2018-01-29T17:16:42.025Z,17.52
2018-01-29T17:19:08.411Z,17.87
2018-01-29T17:21:35.635Z,17.85
2018-01-29T17:24:02.508Z,18.40
2018-01-29T17:26:29.275Z,19.75
2018-01-29T17:28:55.828Z,19.15
2018-01-29T17:31:22.369Z,21.00
2018-01-29T17:33:48.920Z,21.95
2018-01-29T17:36:15.441Z,22.25
2018-01-29T17:38:41.752Z,28.15
2018-01-29T17:41:08.208Z,27.13
2018-01-29T17:43:34.684Z,27.60
2018-01-29T17:46:01.198Z,27.70
2018-01-29T17:48:27.604Z,30.42
2018-01-29T17:50:54.592Z,30.70
2018-01-29T17:53:21.432Z,31.52
2018-01-29T17:55:48.264Z,34.38
2018-01-29T17:58:14.848Z,32.10
2018-01-29T18:00:41.467Z,34.20
2018-01-29T18:03:07.911Z,30.17
2018-01-29T18:05:34.408Z,29.92
2018-01-29T18:08:00.948Z,28.60
2018-01-29T18:10:28.773Z,30.48
2018-01-29T18:12:55.188Z,29.27
2018-01-29T18:15:21.848Z,31.25
2018-01-29T18:17:49.260Z,32.33
2018-01-29T18:20:16.176Z,32.88
2018-01-29T18:22:42.968Z,30.70
2018-01-29T18:25:09.835Z,30.33
2018-01-29T18:27:36.368Z,31.98
2018-01-29T18:30:02.716Z,28.20
2018-01-29T18:32:29.056Z,27.02
2018-01-29T18:34:55.949Z,27.98
2018-01-29T18:37:22.555Z,26.50
2018-01-29T18:39:49.284Z,26.12
2018-01-29T18:42:15.876Z,24.52
2018-01-29T18:44:42.363Z,24.98
2018-01-29T18:47:09.153Z,23.70
2018-01-29T18:49:35.828Z,23.33
2018-01-29T18:52:02.318Z,23.17
2018-01-29T18:54:28.864Z,21.98
2018-01-29T18:56:55.332Z,24.15
2018-01-29T18:59:21.932Z,29.10
2018-01-29T19:01:49.759Z,27.55
2018-01-29T19:04:16.103Z,26.10
2018-01-29T19:06:42.714Z,22.95
2018-01-29T19:09:09.244Z,19.12
2018-01-29T19:11:35.781Z,21.65
2018-01-29T19:14:02.360Z,20.27
2018-01-29T19:16:29.206Z,19.30
2018-01-29T19:18:56.566Z,17.33
2018-01-29T19:21:22.916Z,16.42
2018-01-29T19:23:49.367Z,17.00
2018-01-29T19:26:16.019Z,18.33
2018-01-29T19:28:42.475Z,16.75
2018-01-29T19:31:08.962Z,17.27
2018-01-29T19:33:35.565Z,17.12
2018-01-29T19:36:02.064Z,17.48
2018-01-29T19:38:28.692Z,17.62
2018-01-29T19:40:55.142Z,19.08
2018-01-29T19:43:21.664Z,21.35
2018-01-29T19:45:48.180Z,22.02
2018-01-29T19:48:14.778Z,23.08
2018-01-29T19:50:41.331Z,19.62
2018-01-29T19:53:07.824Z,18.90
2018-01-29T19:55:34.352Z,18.80
2018-01-29T19:58:01.320Z,16.73
2018-01-29T20:00:28.639Z,19.35
2018-01-29T20:02:55.882Z,20.52
2018-01-29T20:05:22.408Z,23.75
2018-01-29T20:07:49.214Z,28.50
2018-01-29T20:10:16.075Z,35.83
2018-01-29T20:12:42.427Z,40.12
2018-01-29T20:15:09.229Z,38.78
2018-01-29T20:17:35.615Z,39.22
2018-01-29T20:20:02.469Z,37.33
2018-01-29T20:22:29.020Z,35.30
2018-01-29T20:24:55.583Z,36.63
2018-01-29T20:27:22.093Z,40.65
2018-01-29T20:29:48.516Z,37.63
2018-01-29T20:32:15.127Z,37.72
2018-01-29T20:34:41.499Z,36.33
2018-01-29T20:37:07.951Z,33.70
2018-01-29T20:39:34.508Z,35.67
2018-01-29T20:42:00.992Z,35.35
2018-01-29T20:44:27.496Z,30.83
2018-01-29T20:46:55.019Z,28.83
2018-01-29T20:49:21.880Z,30.20
2018-01-29T20:51:48.464Z,26.20
2018-01-29T20:54:14.859Z,23.80
2018-01-29T20:56:41.411Z,22.55
2018-01-29T20:59:08.057Z,21.45
2018-01-29T21:01:34.481Z,23.85
2018-01-29T21:04:01.052Z,28.42
2018-01-29T21:06:27.480Z,29.05
2018-01-29T21:08:54.071Z,32.85
2018-01-29T21:11:20.700Z,33.35
2018-01-29T21:13:47.144Z,33.15
2018-01-29T21:16:13.800Z,37.90
2018-01-29T21:18:40.231Z,42.90
2018-01-29T21:21:06.808Z,43.60
2018-01-29T21:23:34.375Z,40.30
2018-01-29T21:26:00.723Z,42.47
2018-01-29T21:28:27.348Z,43.20
2018-01-29T21:30:54.077Z,40.55
2018-01-29T21:33:21.031Z,42.17
2018-01-29T21:35:47.495Z,35.45
2018-01-29T21:38:14.040Z,32.20
2018-01-29T21:40:40.990Z,30.98
2018-01-29T21:43:07.456Z,31.70
2018-01-29T21:45:34.016Z,33.20
2018-01-29T21:48:00.530Z,30.90
2018-01-29T21:50:27.051Z,33.20
2018-01-29T21:52:53.888Z,31.20
2018-01-29T21:55:20.754Z,31.60
2018-01-29T21:57:47.300Z,32.42
2018-01-29T22:00:13.845Z,31.35
2018-01-29T22:02:41.232Z,31.45
2018-01-29T22:05:07.870Z,33.33
2018-01-29T22:07:34.313Z,38.42
2018-01-29T22:10:01.207Z,47.10
2018-01-29T22:12:27.703Z,49.90
2018-01-29T22:14:54.244Z,61.15
2018-01-29T22:17:21.087Z,57.22
2018-01-29T22:19:47.612Z,62.10
2018-01-29T22:22:14.512Z,63.20
2018-01-29T22:24:41.029Z,57.00
2018-01-29T22:27:07.884Z,60.88
2018-01-29T22:29:34.403Z,72.50
2018-01-29T22:32:00.871Z,64.93
2018-01-29T22:34:27.504Z,61.05
2018-01-29T22:36:53.963Z,59.35
2018-01-29T22:39:20.861Z,57.25
2018-01-29T22:41:47.355Z,59.42
2018-01-29T22:44:14.163Z,56.70
2018-01-29T22:46:40.768Z,52.25
2018-01-29T22:49:07.304Z,54.03
2018-01-29T22:51:33.792Z,49.38
2018-01-29T22:54:00.384Z,47.15
2018-01-29T22:56:27.163Z,49.63
2018-01-29T22:58:53.744Z,50.60
2018-01-29T23:01:20.228Z,61.22
2018-01-29T23:03:46.758Z,52.53
2018-01-29T23:06:13.375Z,138.23
2018-01-29T23:08:39.835Z,50.33
2018-01-29T23:11:06.244Z,69.60
2018-01-29T23:13:32.958Z,63.33
2018-01-29T23:15:59.445Z,60.35
2018-01-29T23:18:26.968Z,63.65
2018-01-29T23:20:53.452Z,59.83
2018-01-29T23:23:20.267Z,47.33
2018-01-29T23:25:48.732Z,43.20
2018-01-29T23:28:15.611Z,46.25
2018-01-29T23:30:43.008Z,50.03
2018-01-29T23:33:09.503Z,47.90
2018-01-29T23:35:36.052Z,41.22
2018-01-29T23:38:02.431Z,38.22
2018-01-29T23:40:29.446Z,42.00
2018-01-29T23:42:56.051Z,45.17
2018-01-29T23:45:23.923Z,39.80
2018-01-29T23:47:50.844Z,35.20
2018-01-29T23:50:17.487Z,39.33
2018-01-29T23:52:44.337Z,36.30
2018-01-29T23:55:10.744Z,34.47
2018-01-29T23:57:37.296Z,35.92
